Weather at Belfast International Airport

Public forecast

Using degrees Celsius for public forecast. Weather courtesy of forecast.io.

Current aviation weather report (METAR) for Belfast International Airport

2024/04/22 11:20 (retrieved 40 minutes ago)

EGAA 221120Z AUTO 35013KT 320V020 9999 OVC016 11/07 Q1030

Aviation forecast (TAF) for Belfast International Airport

2024/04/22 06:15 (retrieved 6 hours ago)

TAF TAF EGAA 220458Z 2206/2306 34008KT 9999 BKN020 TEMPO 2206/2212 BKN008 PROB30 TEMPO 2206/2210 8000 -RADZ PROB30 TEMPO 2212/2218 BKN014 TEMPO 2218/2301 BKN012